Portada
METAR-TAF:

METAR-TAF

Aeroports :

Port Macquarie, Austràlia

latitud: 31-26-09S, longitud: 152-51-48E, altitud: 5 m

Observació

L'informe es va fer fa 7 minuts, a les 20:06 UTC
Vent 3 kt del Oest/Nord-Oest
Temperatura 14°C
Humitat 72%
Pressió 1015 hPa
Visibilitat: 1200 m
Núvols disperses a una alçada de 1000 ft
Cel cobert a una alçada de 2400 ft

METAR: YPMQ 132006Z AUTO 29003KT 1200 // SCT010 OVC024 14/09 Q1015

Hora: 07:13 (20:13 UTC)


TAF: manca

Observacions i pronòstics meteorològics de més de 4000 aeroports (METAR i TAF).

Les estacions disponibles són els punts grocs i vermells al mapa.

Posi el ratolí al punt desitjat per veure el nom de l'estació.

Feu clic per veure les observacions i els pronòstics meteorològics.

Per canviar el mapa: feu clic els botons verds amb una creu de color negre per apropar; al botó verd amb un guió per allunyar la imatge; o en les fletxes verdes per a mapes adjacents.


METAR-TAF: